Time;durP1;ratioP1;P1;durP2;ratioP2;P2;SDS_P1;SDS_P2;PMS_P1;PMS_P2;Temp;Humidity;BMP_temperature;BMP_pressure;BME280_temperature;BME280_humidity;BME280_pressure;Samples;Min_cycle;Max_cycle;Signal;HPM_P1;HPM_P2
2021/09/24 00:00:17;;;;;;;3.22;1.20;;;;;;;14.80;77.31;101684.75;5025152;28;20104;-41
2021/09/24 00:02:43;;;;;;;5.60;1.42;;;;;;;14.77;77.45;101681.56;5024944;28;20080;-41
2021/09/24 00:05:09;;;;;;;2.78;1.35;;;;;;;14.75;77.72;101686.38;5034076;28;20030;-40
2021/09/24 00:07:34;;;;;;;6.25;1.77;;;;;;;14.71;77.68;101684.00;5034518;28;20106;-41
2021/09/24 00:10:00;;;;;;;5.70;1.50;;;;;;;14.70;78.06;101676.91;5033261;28;20468;-41
2021/09/24 00:12:25;;;;;;;3.92;1.40;;;;;;;14.69;78.10;101677.97;5022706;28;20038;-40
2021/09/24 00:14:51;;;;;;;4.07;1.60;;;;;;;14.68;78.10;101680.84;5033713;28;20025;-41
2021/09/24 00:17:16;;;;;;;4.35;1.73;;;;;;;14.68;78.16;101670.84;5034592;28;20028;-41
2021/09/24 00:19:41;;;;;;;4.95;1.70;;;;;;;14.67;78.05;101676.47;5034433;28;20048;-41
2021/09/24 00:22:07;;;;;;;5.35;1.88;;;;;;;14.66;77.78;101666.63;5029657;28;20026;-41
2021/09/24 00:24:32;;;;;;;4.93;1.45;;;;;;;14.67;77.83;101671.06;5014592;28;20037;-40
2021/09/24 00:26:57;;;;;;;3.13;1.77;;;;;;;14.65;77.94;101670.41;5032317;28;20072;-41
2021/09/24 00:29:23;;;;;;;2.92;1.30;;;;;;;14.60;78.07;101670.94;5002502;28;20030;-41
2021/09/24 00:31:48;;;;;;;5.50;1.42;;;;;;;14.54;78.36;101673.59;5033791;28;20059;-41
2021/09/24 00:34:13;;;;;;;2.85;1.17;;;;;;;14.43;78.88;101669.44;5033306;28;20087;-41
2021/09/24 00:36:39;;;;;;;5.43;1.50;;;;;;;14.34;79.79;101670.56;5026688;28;20040;-41
2021/09/24 00:39:04;;;;;;;4.22;1.75;;;;;;;14.35;79.89;101664.09;5014263;28;20032;-40
2021/09/24 00:41:29;;;;;;;4.10;1.90;;;;;;;14.35;79.69;101655.97;5014084;28;20028;-41
2021/09/24 00:43:54;;;;;;;6.53;1.50;;;;;;;14.35;79.59;101654.13;5032149;28;20101;-41
2021/09/24 00:46:20;;;;;;;3.75;1.33;;;;;;;14.36;79.59;101654.97;5032160;28;20476;-41
2021/09/24 00:48:46;;;;;;;4.47;1.73;;;;;;;14.38;79.17;101652.91;5033250;28;20061;-41
2021/09/24 00:51:12;;;;;;;5.82;1.48;;;;;;;14.28;79.67;101643.19;5033756;28;20025;-41
2021/09/24 00:53:37;;;;;;;4.50;1.52;;;;;;;14.22;79.87;101649.38;5032273;28;20079;-42
2021/09/24 00:56:03;;;;;;;4.88;1.70;;;;;;;14.19;79.96;101648.88;5032495;28;20030;-41
2021/09/24 00:58:28;;;;;;;3.03;1.45;;;;;;;14.16;79.95;101651.97;5017347;28;20034;-42
2021/09/24 01:00:54;;;;;;;7.13;1.90;;;;;;;14.12;80.06;101645.25;5022790;28;20116;-42
2021/09/24 01:03:19;;;;;;;3.53;1.55;;;;;;;14.09;80.52;101651.88;5022958;28;20072;-41
2021/09/24 01:05:44;;;;;;;4.07;1.52;;;;;;;14.08;80.54;101652.88;5013935;28;20112;-41
2021/09/24 01:08:10;;;;;;;5.63;1.40;;;;;;;14.06;80.41;101646.84;5014904;28;20102;-41
2021/09/24 01:10:35;;;;;;;4.20;1.90;;;;;;;14.03;80.54;101644.47;5030976;28;20512;-41
2021/09/24 01:13:00;;;;;;;3.50;1.40;;;;;;;14.01;80.81;101646.56;5022576;28;20058;-42
2021/09/24 01:15:26;;;;;;;4.45;1.85;;;;;;;13.98;80.63;101646.91;5013827;28;20053;-41
2021/09/24 01:17:51;;;;;;;4.55;1.42;;;;;;;13.97;80.89;101642.53;5016419;28;20045;-42
2021/09/24 01:20:18;;;;;;;4.57;1.40;;;;;;;13.97;80.86;101650.66;5031605;28;20052;-41
2021/09/24 01:22:44;;;;;;;3.95;1.48;;;;;;;13.98;80.57;101644.19;5032599;28;20412;-41
2021/09/24 01:25:11;;;;;;;4.25;1.60;;;;;;;13.94;81.35;101651.03;5021971;28;20034;-41
2021/09/24 01:27:37;;;;;;;3.10;1.57;;;;;;;13.93;81.02;101635.78;5051878;28;20029;-41
2021/09/24 01:30:04;;;;;;;4.88;1.52;;;;;;;13.93;81.09;101630.38;5024952;28;20392;-41
2021/09/24 01:32:30;;;;;;;2.83;1.50;;;;;;;13.94;80.82;101629.38;5017805;28;20030;-42
2021/09/24 01:34:55;;;;;;;5.40;1.45;;;;;;;13.92;80.81;101624.13;5025405;28;20041;-40
2021/09/24 01:37:22;;;;;;;5.10;1.58;;;;;;;13.92;80.67;101626.84;5025675;28;20037;-41
2021/09/24 01:39:47;;;;;;;2.50;1.40;;;;;;;13.91;81.03;101625.16;5013300;28;20172;-41
2021/09/24 01:42:12;;;;;;;4.38;1.55;;;;;;;13.90;80.72;101623.50;5015212;28;20108;-41
2021/09/24 01:44:38;;;;;;;5.88;1.83;;;;;;;13.88;81.03;101622.00;5032148;28;20044;-41
2021/09/24 01:47:03;;;;;;;3.42;1.38;;;;;;;13.87;81.15;101623.00;5032811;28;20036;-41
2021/09/24 01:49:29;;;;;;;3.15;1.60;;;;;;;13.83;80.96;101609.84;5032782;28;20032;-41
2021/09/24 01:51:54;;;;;;;3.88;1.45;;;;;;;13.81;81.05;101614.59;5031655;28;20101;-42
2021/09/24 01:54:20;;;;;;;5.10;1.60;;;;;;;13.79;81.27;101608.53;5020465;28;20108;-40
2021/09/24 01:56:46;;;;;;;4.85;1.73;;;;;;;13.76;81.48;101611.59;5032658;28;20036;-40
2021/09/24 01:59:11;;;;;;;5.55;1.90;;;;;;;13.78;81.44;101598.75;5019695;28;20025;-41
2021/09/24 02:01:37;;;;;;;5.60;1.50;;;;;;;13.77;81.70;101594.38;5030763;28;20053;-40
2021/09/24 02:04:03;;;;;;;4.85;1.35;;;;;;;13.75;81.21;101593.69;5011951;28;20024;-41
2021/09/24 02:06:28;;;;;;;6.45;1.63;;;;;;;13.74;81.57;101586.59;5027921;28;20034;-41
2021/09/24 02:08:54;;;;;;;4.82;1.50;;;;;;;13.75;81.54;101582.03;5012675;28;20221;-42
2021/09/24 02:11:19;;;;;;;4.32;1.75;;;;;;;13.74;81.30;101580.34;5012616;28;20017;-41
2021/09/24 02:13:45;;;;;;;4.10;1.70;;;;;;;13.73;81.30;101584.91;5026532;28;20124;-42
2021/09/24 02:16:11;;;;;;;6.32;1.90;;;;;;;13.74;81.30;101585.75;5012589;28;20385;-41
2021/09/24 02:18:38;;;;;;;5.60;1.52;;;;;;;13.72;81.31;101583.25;5011310;28;20026;-40
2021/09/24 02:21:03;;;;;;;3.58;1.60;;;;;;;13.73;80.98;101587.63;5021480;28;20036;-41
2021/09/24 02:23:29;;;;;;;6.35;1.75;;;;;;;13.70;80.82;101579.06;5015532;28;20414;-40
2021/09/24 05:41:26;;;;;;;11.38;5.32;;;;;;;14.79;87.45;101541.31;5069164;28;20405;-41
2021/09/24 05:43:51;;;;;;;9.63;5.38;;;;;;;14.82;87.63;101530.94;5068870;28;20033;-42
2021/09/24 05:46:17;;;;;;;18.13;6.53;;;;;;;14.91;88.04;101539.78;5052300;28;20036;-41
2021/09/24 05:48:43;;;;;;;15.40;8.20;;;;;;;15.00;88.77;101525.06;5067824;28;20112;-41
2021/09/24 05:51:08;;;;;;;14.23;8.18;;;;;;;15.05;89.11;101521.78;5068423;28;20044;-42
2021/09/24 05:53:34;;;;;;;13.13;7.72;;;;;;;15.12;89.29;101519.97;5066693;28;20032;-42
2021/09/24 05:55:59;;;;;;;15.20;7.78;;;;;;;15.18;88.94;101534.59;5067773;28;20067;-43
2021/09/24 05:58:24;;;;;;;14.18;8.02;;;;;;;15.22;89.12;101535.88;5066118;28;20063;-41
2021/09/24 06:00:50;;;;;;;16.27;7.60;;;;;;;15.27;88.97;101538.84;5063154;28;20013;-41
2021/09/24 06:03:15;;;;;;;19.20;7.28;;;;;;;15.29;88.60;101543.03;5069175;28;20027;-42
2021/09/24 06:05:41;;;;;;;14.73;6.80;;;;;;;15.33;88.19;101541.63;5089122;28;20024;-42
2021/09/24 06:08:06;;;;;;;15.45;7.00;;;;;;;15.37;88.18;101537.47;5080078;28;20031;-40
2021/09/24 06:10:31;;;;;;;15.93;7.50;;;;;;;15.44;88.42;101532.09;5057468;28;20102;-43
2021/09/24 06:12:57;;;;;;;20.02;8.18;;;;;;;15.51;88.88;101538.44;5066168;28;20032;-42
2021/09/24 06:15:24;;;;;;;17.20;8.13;;;;;;;15.54;89.03;101534.47;5065708;28;20497;-42
2021/09/24 06:17:49;;;;;;;18.33;8.52;;;;;;;15.59;88.98;101532.84;5067979;28;20021;-41
2021/09/24 06:20:15;;;;;;;13.27;8.27;;;;;;;15.66;89.17;101532.03;5062450;28;20124;-42
2021/09/24 06:22:41;;;;;;;15.52;7.82;;;;;;;15.72;88.87;101536.72;5049097;28;20078;-42
2021/09/24 06:25:08;;;;;;;15.93;7.65;;;;;;;15.79;88.42;101540.31;5081728;28;20033;-42
2021/09/24 06:27:33;;;;;;;12.73;6.88;;;;;;;15.84;88.27;101545.97;5056424;28;20094;-41
2021/09/24 06:29:59;;;;;;;12.55;7.45;;;;;;;15.90;88.20;101544.31;5062566;28;20043;-42
2021/09/24 06:32:24;;;;;;;13.80;7.28;;;;;;;15.98;87.96;101546.88;5062496;28;20025;-41
2021/09/24 06:34:50;;;;;;;12.80;8.25;;;;;;;16.05;88.18;101542.31;5060341;28;20480;-41
2021/09/24 06:37:17;;;;;;;13.18;8.27;;;;;;;16.13;88.08;101539.44;5056167;28;20040;-40
2021/09/24 06:39:43;;;;;;;20.88;8.43;;;;;;;16.19;87.94;101545.94;5053502;28;20045;-41
2021/09/24 06:42:08;;;;;;;11.52;8.07;;;;;;;16.24;88.09;101546.16;5046818;28;20373;-42
2021/09/24 06:44:34;;;;;;;15.65;9.02;;;;;;;16.34;88.02;101546.63;5049763;28;20025;-41
2021/09/24 06:47:00;;;;;;;16.63;8.43;;;;;;;16.46;87.63;101545.03;5057205;28;20444;-41
2021/09/24 06:49:25;;;;;;;11.77;7.82;;;;;;;16.62;87.24;101548.41;5061511;28;20052;-41
2021/09/24 06:51:52;;;;;;;14.32;7.93;;;;;;;16.76;86.54;101549.28;5069650;28;20514;-40
2021/09/24 06:54:18;;;;;;;13.98;7.78;;;;;;;16.85;85.77;101554.38;5043643;28;20502;-40
2021/09/24 06:56:43;;;;;;;11.93;7.28;;;;;;;16.89;85.84;101555.59;5067450;28;20040;-43
2021/09/24 06:59:08;;;;;;;13.35;7.25;;;;;;;16.95;85.75;101550.38;5074560;28;20040;-41
2021/09/24 07:01:34;;;;;;;12.07;6.30;;;;;;;17.01;85.37;101552.28;5046080;28;20029;-41
2021/09/24 07:03:59;;;;;;;14.48;7.03;;;;;;;17.06;85.20;101555.22;5033877;28;20029;-42
2021/09/24 07:06:25;;;;;;;15.85;7.40;;;;;;;17.12;84.97;101554.41;5034833;28;20357;-41
2021/09/24 07:08:51;;;;;;;13.20;6.15;;;;;;;17.23;84.49;101553.78;5047166;28;20052;-41
2021/09/24 07:11:16;;;;;;;13.82;5.90;;;;;;;17.29;84.31;101558.38;5053077;28;20102;-41
2021/09/24 07:13:42;;;;;;;13.63;6.60;;;;;;;17.38;84.09;101561.75;5046391;28;20033;-42
2021/09/24 07:16:07;;;;;;;10.70;5.93;;;;;;;17.37;84.12;101560.03;5032928;28;20034;-40
2021/09/24 07:18:32;;;;;;;14.32;5.50;;;;;;;17.40;83.94;101556.06;5052864;28;20033;-40
2021/09/24 07:20:58;;;;;;;10.15;5.45;;;;;;;17.43;83.74;101555.63;5074156;28;20029;-41
2021/09/24 07:23:24;;;;;;;10.27;5.25;;;;;;;17.45;83.59;101554.38;5060401;28;20032;-41
2021/09/24 07:25:50;;;;;;;9.48;5.75;;;;;;;17.54;83.54;101553.13;5037090;28;20026;-41
2021/09/24 07:28:15;;;;;;;11.65;5.28;;;;;;;17.67;83.07;101557.75;5051777;28;20455;-40
2021/09/24 07:30:41;;;;;;;16.83;5.13;;;;;;;17.74;82.32;101557.72;5053616;28;20036;-42
2021/09/24 07:33:07;;;;;;;10.45;5.20;;;;;;;17.84;81.74;101562.75;5060089;28;20356;-40
2021/09/24 07:35:32;;;;;;;9.43;4.60;;;;;;;18.03;81.32;101561.88;5047065;28;20022;-41
2021/09/24 07:37:58;;;;;;;7.25;4.00;;;;;;;18.25;79.86;101558.88;5048850;28;20044;-40
2021/09/24 07:40:24;;;;;;;9.23;4.22;;;;;;;18.64;79.29;101566.88;5052171;28;20451;-42
2021/09/24 07:42:50;;;;;;;7.35;4.28;;;;;;;19.21;77.17;101568.84;5038511;28;20422;-41
2021/09/24 07:45:16;;;;;;;8.85;3.28;;;;;;;19.26;74.78;101569.03;5042265;28;20057;-41
2021/09/24 07:47:42;;;;;;;6.35;3.33;;;;;;;18.96;75.06;101564.19;5057966;28;20048;-41
2021/09/24 07:50:07;;;;;;;9.82;3.78;;;;;;;18.97;75.51;101559.56;5045417;28;20026;-41
2021/09/24 07:52:33;;;;;;;8.23;3.55;;;;;;;19.07;74.62;101562.66;5045700;28;20059;-41
2021/09/24 07:54:58;;;;;;;11.70;3.30;;;;;;;19.09;73.30;101566.00;5038465;28;20100;-40
2021/09/24 07:57:24;;;;;;;8.05;2.90;;;;;;;19.02;73.19;101567.94;5045949;28;20044;-41
2021/09/24 07:59:49;;;;;;;9.20;2.78;;;;;;;19.01;73.69;101567.09;5045309;28;20090;-40
2021/09/24 08:02:15;;;;;;;10.25;3.38;;;;;;;19.00;73.47;101564.59;5058124;28;20506;-40
2021/09/24 08:04:41;;;;;;;7.78;2.95;;;;;;;18.93;73.42;101570.09;5034911;28;20039;-42
2021/09/24 08:07:07;;;;;;;12.82;3.90;;;;;;;19.04;73.57;101563.94;5040966;28;20024;-41
2021/09/24 08:09:32;;;;;;;10.15;3.10;;;;;;;19.35;72.60;101564.13;5036824;28;20037;-43
2021/09/24 08:11:58;;;;;;;11.82;3.75;;;;;;;19.95;71.24;101569.88;5038794;28;20108;-41
2021/09/24 08:14:23;;;;;;;9.95;2.85;;;;;;;20.37;69.10;101557.19;5037543;28;20543;-41
2021/09/24 08:16:48;;;;;;;9.23;3.10;;;;;;;20.36;67.84;101560.16;5045595;28;20056;-42
2021/09/24 08:19:14;;;;;;;5.40;2.13;;;;;;;20.41;67.22;101560.31;5050316;28;20091;-42
2021/09/24 08:21:39;;;;;;;7.07;2.55;;;;;;;20.50;66.12;101566.28;5038442;28;20070;-41
2021/09/24 08:24:04;;;;;;;7.43;2.85;;;;;;;20.60;66.63;101564.69;5044013;28;20029;-41
2021/09/24 08:26:30;;;;;;;6.85;2.97;;;;;;;20.61;66.55;101552.69;5038269;28;20071;-42
2021/09/24 08:28:55;;;;;;;10.63;3.00;;;;;;;20.36;67.25;101562.91;5037353;28;20028;-42
2021/09/24 08:31:20;;;;;;;12.43;3.35;;;;;;;20.79;66.82;101556.44;5044831;28;20060;-42
2021/09/24 08:33:49;;;;;;;7.38;2.47;;;;;;;21.69;64.28;101561.75;5042940;28;20032;-42
2021/09/24 08:36:15;;;;;;;7.38;2.50;;;;;;;22.19;62.46;101563.13;5051892;28;20369;-42
2021/09/24 08:38:40;;;;;;;11.27;2.90;;;;;;;23.13;59.60;101559.22;5042381;28;20033;-41
2021/09/24 08:41:06;;;;;;;6.10;2.50;;;;;;;23.72;57.72;101562.38;5043870;28;20385;-41
2021/09/24 08:43:33;;;;;;;6.95;2.65;;;;;;;23.60;57.58;101572.59;5033106;28;20047;-42
2021/09/24 08:45:58;;;;;;;8.07;2.90;;;;;;;23.19;58.14;101571.94;5043881;28;20021;-42
2021/09/24 08:48:24;;;;;;;8.70;3.05;;;;;;;23.24;59.26;101569.28;5032020;28;20036;-42
2021/09/24 08:50:51;;;;;;;7.22;2.90;;;;;;;23.47;58.05;101570.22;5039460;28;20076;-43
2021/09/24 08:53:19;;;;;;;7.10;2.60;;;;;;;23.26;57.21;101569.88;5050342;28;20047;-42
2021/09/24 08:55:45;;;;;;;5.15;2.65;;;;;;;23.20;57.08;101574.44;5047529;28;20377;-42
2021/09/24 08:58:12;;;;;;;6.63;2.45;;;;;;;23.42;56.69;101574.53;5052196;28;20025;-42
2021/09/24 09:00:42;;;;;;;6.28;2.63;;;;;;;24.01;55.43;101570.47;5049920;28;20040;-42
2021/09/24 09:03:10;;;;;;;9.40;2.60;;;;;;;24.95;53.62;101566.63;5032078;28;20075;-43
2021/09/24 09:05:41;;;;;;;9.73;2.50;;;;;;;24.18;54.09;101565.75;5039943;28;20077;-41
2021/09/24 09:08:15;;;;;;;11.00;2.90;;;;;;;23.39;56.48;101572.28;5051819;28;20094;-41
2021/09/24 09:11:01;;;;;;;9.07;2.50;;;;;;;22.34;58.79;101559.91;5049391;28;20021;-42
2021/09/24 09:13:35;;;;;;;7.20;2.77;;;;;;;21.92;60.40;101555.41;5039101;28;20025;-42
2021/09/24 09:16:03;;;;;;;6.60;2.97;;;;;;;21.58;61.31;101562.56;5039486;28;20037;-41
2021/09/24 09:18:33;;;;;;;8.32;2.13;;;;;;;21.46;61.52;101559.03;5035767;28;20467;-44
2021/09/24 09:21:03;;;;;;;5.63;2.25;;;;;;;20.93;61.85;101554.34;5040279;28;20120;-42
2021/09/24 09:23:30;;;;;;;6.43;2.38;;;;;;;20.70;62.62;101560.59;5041720;28;20029;-43
2021/09/24 09:25:58;;;;;;;4.85;2.40;;;;;;;20.27;63.83;101561.53;5048640;28;20036;-42
2021/09/24 09:28:33;;;;;;;9.30;2.70;;;;;;;20.06;65.01;101555.44;5045550;28;20040;-42
2021/09/24 09:30:59;;;;;;;3.28;2.13;;;;;;;19.99;64.93;101556.63;5035781;28;20033;-41
2021/09/24 09:33:25;;;;;;;8.95;2.90;;;;;;;19.90;64.99;101550.59;5036383;28;20038;-42
2021/09/24 09:35:53;;;;;;;7.85;2.97;;;;;;;19.68;66.31;101548.31;5036723;28;20032;-41
2021/09/24 09:38:25;;;;;;;8.18;2.85;;;;;;;19.52;67.52;101549.69;5033687;28;20041;-41
2021/09/24 09:41:11;;;;;;;5.97;2.60;;;;;;;19.63;67.90;101550.00;5041184;28;20508;-42
2021/09/24 09:43:40;;;;;;;6.75;2.78;;;;;;;19.62;67.39;101553.81;5056120;28;20032;-43
2021/09/24 09:46:12;;;;;;;8.75;2.58;;;;;;;19.71;67.20;101541.56;5045200;28;20036;-41
2021/09/24 09:48:37;;;;;;;6.78;2.40;;;;;;;19.69;66.71;101543.66;5047104;28;20108;-42
2021/09/24 09:51:03;;;;;;;5.32;2.40;;;;;;;19.53;67.25;101526.78;5051609;28;20116;-41
2021/09/24 09:53:28;;;;;;;4.28;2.60;;;;;;;19.68;67.25;101525.63;5051366;28;20024;-41
2021/09/24 09:55:57;;;;;;;4.35;2.40;;;;;;;20.03;66.21;101512.19;5050733;28;20025;-42
2021/09/24 09:58:25;;;;;;;5.45;2.30;;;;;;;20.42;64.99;101520.13;5045882;28;20056;-41
2021/09/24 10:00:53;;;;;;;5.15;2.30;;;;;;;20.67;64.51;101525.47;5047139;28;20025;-41
2021/09/24 10:03:30;;;;;;;9.45;3.10;;;;;;;20.74;64.35;101524.31;5049770;28;20056;-41
2021/09/24 10:05:55;;;;;;;4.82;2.38;;;;;;;20.46;64.65;101526.78;5042272;28;20072;-42
2021/09/24 10:08:30;;;;;;;4.93;2.40;;;;;;;20.35;64.68;101525.66;5032246;28;20057;-41
2021/09/24 10:10:58;;;;;;;4.45;2.50;;;;;;;20.21;65.35;101530.47;5038760;28;20026;-41
2021/09/24 10:13:25;;;;;;;5.30;2.60;;;;;;;20.00;65.23;101517.28;5041171;28;20036;-41
2021/09/24 10:15:51;;;;;;;6.45;2.67;;;;;;;20.14;64.57;101516.06;5031967;28;20056;-41
2021/09/24 10:18:16;;;;;;;6.32;2.40;;;;;;;20.25;65.18;101520.78;5031891;28;20384;-41
2021/09/24 10:20:42;;;;;;;6.80;2.58;;;;;;;20.50;65.47;101511.59;5032207;28;20095;-41
2021/09/24 10:23:08;;;;;;;4.93;2.50;;;;;;;20.87;63.03;101522.47;5050344;28;20507;-41
2021/09/24 10:25:35;;;;;;;5.10;2.33;;;;;;;20.84;62.64;101512.81;5041802;28;20458;-41
2021/09/24 10:28:10;;;;;;;4.93;2.45;;;;;;;20.60;64.07;101515.47;5049878;28;20483;-40
2021/09/24 10:30:36;;;;;;;7.65;2.60;;;;;;;20.37;64.36;101513.44;5057806;28;20071;-42
2021/09/24 10:33:07;;;;;;;3.63;2.25;;;;;;;20.48;64.51;101516.47;5048854;28;20494;-42
2021/09/24 10:35:49;;;;;;;5.82;2.55;;;;;;;20.76;64.19;101518.63;5050560;28;20029;-42
2021/09/24 10:38:16;;;;;;;4.35;2.05;;;;;;;21.03;61.70;101510.81;5046152;28;20063;-42
2021/09/24 10:40:55;;;;;;;6.18;2.10;;;;;;;21.20;60.96;101511.00;5042536;28;20049;-42
2021/09/24 10:43:20;;;;;;;3.35;1.70;;;;;;;21.19;60.32;101514.78;5054364;28;20472;-42
2021/09/24 10:45:46;;;;;;;4.32;1.77;;;;;;;21.19;60.24;101521.06;5034632;28;20075;-41
2021/09/24 10:48:17;;;;;;;4.22;1.75;;;;;;;20.87;60.90;101519.72;5033746;28;20034;-41
2021/09/24 10:50:44;;;;;;;4.97;1.77;;;;;;;21.00;61.78;101527.72;5035816;28;20040;-42
2021/09/24 10:53:16;;;;;;;5.38;1.73;;;;;;;20.83;60.76;101546.72;5039415;28;20056;-41
2021/09/24 10:55:43;;;;;;;4.13;1.52;;;;;;;20.49;62.79;101529.91;5034593;28;20451;-40
2021/09/24 10:58:20;;;;;;;4.20;1.67;;;;;;;20.64;61.57;101528.69;5057122;28;20021;-41
2021/09/24 11:00:47;;;;;;;;;;;;;;;20.66;61.77;101530.13;5033504;28;20029;-41
2021/09/24 11:03:14;;;;;;;4.35;1.50;;;;;;;20.68;61.35;101530.72;5035864;28;19919;-41
2021/09/24 11:05:56;;;;;;;2.53;1.60;;;;;;;20.78;61.78;101521.97;5033279;28;20028;-42
2021/09/24 11:08:33;;;;;;;4.47;1.45;;;;;;;20.74;61.24;101529.78;5043964;28;20544;-42
2021/09/24 11:11:12;;;;;;;2.58;1.40;;;;;;;20.48;61.08;101524.66;5051459;28;20029;-42
2021/09/24 11:13:45;;;;;;;3.65;1.70;;;;;;;20.18;62.10;101522.75;5034358;28;20033;-42
2021/09/24 11:16:18;;;;;;;2.85;1.33;;;;;;;20.28;61.86;101520.31;5034165;28;20029;-43
2021/09/24 11:18:51;;;;;;;1.70;1.30;;;;;;;20.24;62.26;101519.09;5044045;28;20025;-43
2021/09/24 11:21:36;;;;;;;2.72;1.13;;;;;;;20.39;61.66;101522.25;5074263;28;20033;-41
2021/09/24 11:24:03;;;;;;;2.78;1.20;;;;;;;20.64;60.73;101506.81;5070063;28;20170;-42
2021/09/24 11:26:33;;;;;;;3.15;1.25;;;;;;;20.95;59.82;101508.44;5072737;28;20055;-42
2021/09/24 11:29:22;;;;;;;3.13;1.27;;;;;;;20.67;59.02;101498.97;5044164;28;20106;-43
2021/09/24 11:31:53;;;;;;;3.63;1.13;;;;;;;21.06;58.89;101504.88;5044185;28;20079;-42
2021/09/24 11:34:41;;;;;;;2.25;1.00;;;;;;;21.53;57.95;101504.94;5034008;28;20026;-42
2021/09/24 11:37:24;;;;;;;4.25;1.05;;;;;;;21.21;57.25;101502.53;5033759;28;20037;-43
2021/09/24 11:40:01;;;;;;;2.03;1.20;;;;;;;20.74;58.52;101502.44;5044969;28;20044;-43
2021/09/24 11:42:30;;;;;;;1.83;1.10;;;;;;;20.77;58.63;101499.25;5053176;28;20021;-42
2021/09/24 11:44:56;;;;;;;2.55;0.63;;;;;;;20.89;57.83;101506.66;5039747;28;20022;-42
2021/09/24 11:47:42;;;;;;;2.78;1.00;;;;;;;21.04;58.18;101507.03;5041005;28;20457;-42
2021/09/24 11:50:14;;;;;;;5.70;1.40;;;;;;;21.10;57.52;101506.09;5045240;28;20032;-42
2021/09/24 11:52:51;;;;;;;4.53;0.95;;;;;;;20.89;57.73;101503.91;5053620;28;20373;-41
2021/09/24 11:55:20;;;;;;;3.63;1.00;;;;;;;20.94;57.18;101501.31;5053454;28;20063;-43
2021/09/24 11:57:57;;;;;;;5.55;1.35;;;;;;;20.52;57.55;101493.06;5047453;28;20122;-41
2021/09/24 12:00:23;;;;;;;;;;;;;;;20.25;58.47;101492.56;5039287;28;20045;-43
2021/09/24 12:02:48;;;;;;;3.05;0.95;;;;;;;20.35;58.72;101495.59;5035939;28;19917;-41
2021/09/24 12:05:14;;;;;;;3.25;0.82;;;;;;;20.77;57.35;101490.19;5032359;28;20168;-43
2021/09/24 12:07:49;;;;;;;1.77;1.02;;;;;;;21.31;56.84;101480.03;5049066;28;20068;-42
2021/09/24 12:10:15;;;;;;;3.58;0.80;;;;;;;21.98;54.86;101478.78;5033669;28;20472;-41
2021/09/24 12:12:44;;;;;;;2.08;0.93;;;;;;;21.87;54.44;101492.28;5032362;28;20037;-42
2021/09/24 12:15:09;;;;;;;3.45;1.02;;;;;;;21.99;54.46;101491.44;5033159;28;20037;-42
2021/09/24 12:17:35;;;;;;;2.15;0.88;;;;;;;22.72;53.73;101501.66;5033242;28;20531;-41
2021/09/24 12:20:00;;;;;;;1.67;0.70;;;;;;;23.19;51.27;101511.53;5033157;28;20131;-43
2021/09/24 12:22:26;;;;;;;3.50;0.73;;;;;;;22.41;52.57;101511.22;5033028;28;20057;-43
2021/09/24 12:24:53;;;;;;;2.83;0.75;;;;;;;22.74;53.32;101495.91;5048383;28;20018;-41
2021/09/24 12:27:28;;;;;;;2.05;0.80;;;;;;;23.12;51.96;101505.38;5048648;28;20041;-41
2021/09/24 12:29:54;;;;;;;1.95;0.70;;;;;;;22.49;52.12;101502.59;5032583;28;20120;-42
2021/09/24 12:32:22;;;;;;;5.13;1.33;;;;;;;22.40;52.69;101498.56;5033172;28;20060;-42
2021/09/24 12:34:48;;;;;;;3.00;0.82;;;;;;;22.31;52.78;101491.84;5032574;28;20153;-41
2021/09/24 12:37:16;;;;;;;2.40;0.90;;;;;;;22.72;51.79;101490.69;5032922;28;20053;-43
2021/09/24 12:39:44;;;;;;;1.85;0.70;;;;;;;22.62;51.84;101479.53;5032981;28;20373;-44
2021/09/24 12:42:16;;;;;;;1.88;0.65;;;;;;;22.81;51.86;101491.09;5048143;28;20461;-42
2021/09/24 12:44:53;;;;;;;6.72;1.20;;;;;;;22.05;52.99;101483.06;5032733;28;20025;-42
2021/09/24 12:47:22;;;;;;;2.95;0.88;;;;;;;21.95;53.68;101485.59;5032831;28;20053;-43
2021/09/24 12:49:47;;;;;;;2.65;1.00;;;;;;;22.12;53.65;101485.66;5031892;28;20105;-40
2021/09/24 12:52:12;;;;;;;2.13;1.05;;;;;;;21.90;54.57;101489.03;5032593;28;20113;-41
2021/09/24 12:54:38;;;;;;;4.18;1.30;;;;;;;22.01;54.91;101492.84;5032820;28;20044;-41
2021/09/24 12:57:03;;;;;;;7.25;1.15;;;;;;;21.98;55.11;101490.56;5031385;28;20106;-42
2021/09/24 12:59:29;;;;;;;3.60;1.20;;;;;;;22.11;55.20;101492.22;5065308;28;20446;-41
2021/09/24 13:01:54;;;;;;;2.85;1.00;;;;;;;22.75;53.69;101494.84;5052247;28;20083;-42
2021/09/24 13:04:19;;;;;;;4.20;1.30;;;;;;;22.74;53.02;101502.22;5052275;28;20067;-42
2021/09/24 13:06:48;;;;;;;5.90;1.30;;;;;;;22.60;54.06;101494.56;5052073;28;20074;-42
2021/09/24 13:09:15;;;;;;;2.00;1.05;;;;;;;22.46;53.55;101502.25;5039019;28;20056;-41
2021/09/24 13:11:41;;;;;;;2.90;1.02;;;;;;;21.80;55.58;101498.94;5029241;28;20100;-42
2021/09/24 13:14:06;;;;;;;4.60;1.17;;;;;;;21.20;56.77;101497.31;5051078;28;20043;-41
2021/09/24 13:16:33;;;;;;;3.60;1.55;;;;;;;21.03;58.05;101494.41;5047942;28;20052;-41
2021/09/24 13:18:59;;;;;;;4.75;1.20;;;;;;;21.19;58.01;101493.72;5050035;28;20032;-41
2021/09/24 13:21:30;;;;;;;3.15;1.42;;;;;;;21.07;58.09;101501.09;5047495;28;20060;-41
2021/09/24 13:23:56;;;;;;;8.40;1.23;;;;;;;21.39;57.86;101487.94;5037886;28;20033;-42
2021/09/24 13:26:22;;;;;;;2.95;1.15;;;;;;;21.79;56.15;101467.16;5038233;28;20036;-41
2021/09/24 13:28:47;;;;;;;3.33;1.27;;;;;;;21.82;56.34;101477.63;5033453;28;20378;-42
2021/09/24 13:31:13;;;;;;;4.22;1.10;;;;;;;21.88;56.27;101477.50;5059396;28;20030;-42
2021/09/24 13:33:39;;;;;;;2.42;1.23;;;;;;;22.03;55.93;101482.47;5043193;28;20025;-41
2021/09/24 13:36:05;;;;;;;5.68;1.35;;;;;;;22.17;55.50;101477.56;5032186;28;20029;-42
2021/09/24 13:38:30;;;;;;;3.60;1.27;;;;;;;22.21;54.81;101475.16;5032117;28;20034;-42
2021/09/24 13:40:56;;;;;;;4.18;1.00;;;;;;;21.98;55.46;101471.38;5048275;28;20102;-41
2021/09/24 13:43:21;;;;;;;3.72;1.25;;;;;;;21.52;56.56;101470.41;5049303;28;20079;-40
2021/09/24 13:45:46;;;;;;;4.75;1.60;;;;;;;21.35;57.41;101464.78;5031773;28;20504;-42
2021/09/24 13:48:12;;;;;;;4.75;1.20;;;;;;;21.40;57.16;101445.75;5045390;28;20372;-41
2021/09/24 13:50:37;;;;;;;4.97;1.35;;;;;;;21.82;56.28;101466.66;5051253;28;20086;-42
2021/09/24 13:53:05;;;;;;;4.90;1.35;;;;;;;21.83;56.17;101450.00;5041574;28;20028;-42
2021/09/24 13:55:31;;;;;;;2.90;1.23;;;;;;;22.37;55.05;101452.44;5050448;28;20029;-42
2021/09/24 13:57:56;;;;;;;3.75;1.17;;;;;;;22.72;53.59;101446.78;5031753;28;20140;-41
2021/09/24 14:00:21;;;;;;;2.47;1.05;;;;;;;22.21;54.10;101454.06;5036146;28;20480;-42
2021/09/24 14:02:47;;;;;;;4.13;0.90;;;;;;;22.35;53.10;101443.63;5054400;28;20345;-42
2021/09/24 14:05:13;;;;;;;5.07;1.30;;;;;;;21.87;53.93;101442.94;5053653;28;20106;-42
2021/09/24 14:07:38;;;;;;;3.25;0.95;;;;;;;22.42;53.29;101438.81;5055477;28;20029;-42
2021/09/24 14:10:06;;;;;;;7.70;1.10;;;;;;;22.28;52.68;101429.25;5049711;28;20025;-41
2021/09/24 14:12:33;;;;;;;6.93;1.27;;;;;;;22.12;52.69;101441.81;5048427;28;20114;-44
2021/09/24 14:14:58;;;;;;;5.05;1.02;;;;;;;22.08;52.66;101433.22;5051691;28;20030;-41
2021/09/24 14:17:23;;;;;;;2.75;0.98;;;;;;;21.94;53.18;101434.59;5050625;28;20029;-42
2021/09/24 14:19:49;;;;;;;3.90;1.10;;;;;;;22.04;52.62;101443.03;5052298;28;20056;-42
2021/09/24 14:22:14;;;;;;;2.40;1.00;;;;;;;22.05;52.34;101428.22;5035345;28;20044;-42
2021/09/24 14:24:40;;;;;;;3.15;1.08;;;;;;;22.35;52.54;101438.13;5035210;28;20017;-42
2021/09/24 14:27:05;;;;;;;3.67;1.00;;;;;;;22.09;52.09;101432.16;5041147;28;20074;-41
2021/09/24 14:29:31;;;;;;;3.30;0.85;;;;;;;22.13;52.24;101422.34;5054727;28;20383;-42
2021/09/24 14:31:57;;;;;;;5.32;1.05;;;;;;;21.78;51.92;101410.72;5050980;28;20029;-42
2021/09/24 14:34:23;;;;;;;3.08;0.80;;;;;;;21.37;53.27;101426.22;5035174;28;20391;-42
2021/09/24 14:36:49;;;;;;;2.33;0.95;;;;;;;20.98;54.41;101409.44;5045765;28;20025;-42
2021/09/24 14:39:15;;;;;;;5.30;1.17;;;;;;;20.96;55.27;101417.91;5035098;28;20382;-43